createdAt,value
2019-03-11T00:04:44.000Z,16.2
2019-03-11T00:14:44.000Z,16.3
2019-03-11T00:24:44.000Z,16.2
2019-03-11T00:34:44.000Z,16.2
2019-03-11T00:44:44.000Z,16.2
2019-03-11T00:54:44.000Z,16.2
2019-03-11T01:04:45.000Z,16.2
2019-03-11T01:14:44.000Z,16.2
2019-03-11T01:24:45.000Z,16.1
2019-03-11T01:34:45.000Z,15.9
2019-03-11T01:44:45.000Z,15.8
2019-03-11T01:54:45.000Z,15.5
2019-03-11T02:04:45.000Z,15.5
2019-03-11T02:14:45.000Z,15.6
2019-03-11T02:24:45.000Z,15.5
2019-03-11T02:34:45.000Z,15.5
2019-03-11T02:44:45.000Z,15.5
2019-03-11T02:54:45.000Z,15.4
2019-03-11T03:04:45.000Z,15.4
2019-03-11T03:14:45.000Z,15.3
2019-03-11T03:24:45.000Z,15.3
2019-03-11T03:34:45.000Z,15.3
2019-03-11T03:44:45.000Z,15.3
2019-03-11T03:54:45.000Z,15.2
2019-03-11T04:04:45.000Z,15.2
2019-03-11T04:14:45.000Z,15.2
2019-03-11T04:24:45.000Z,15.1
2019-03-11T04:34:45.000Z,15.2
2019-03-11T04:44:45.000Z,15.2
2019-03-11T04:54:45.000Z,15.1
2019-03-11T05:04:45.000Z,15.1
2019-03-11T05:14:45.000Z,15
2019-03-11T05:24:45.000Z,15
2019-03-11T05:34:45.000Z,15.1
2019-03-11T05:44:45.000Z,15
2019-03-11T05:54:45.000Z,14.9
2019-03-11T06:04:45.000Z,14.9
2019-03-11T06:14:45.000Z,15
2019-03-11T06:24:45.000Z,14.8
2019-03-11T06:34:45.000Z,14.9
2019-03-11T06:44:46.000Z,14.8
2019-03-11T06:54:45.000Z,14.9
2019-03-11T07:04:45.000Z,14.8
2019-03-11T07:14:45.000Z,14.9
2019-03-11T07:24:45.000Z,14.9
2019-03-11T07:34:45.000Z,14.9
2019-03-11T07:44:45.000Z,14.8
2019-03-11T07:54:45.000Z,14.8
2019-03-11T08:04:45.000Z,14.8
2019-03-11T08:14:45.000Z,14.8
2019-03-11T08:24:45.000Z,15.2
2019-03-11T08:34:46.000Z,16.6
2019-03-11T08:44:46.000Z,17.4
2019-03-11T08:54:46.000Z,18
2019-03-11T09:04:46.000Z,18.2
2019-03-11T09:14:46.000Z,18.4
2019-03-11T09:24:46.000Z,18.5
2019-03-11T09:34:46.000Z,18.6
2019-03-11T09:44:46.000Z,18.7
2019-03-11T09:54:46.000Z,18.8
2019-03-11T10:04:46.000Z,18.8
2019-03-11T10:14:46.000Z,18.9
2019-03-11T10:24:46.000Z,19
2019-03-11T10:34:46.000Z,19
2019-03-11T10:44:47.000Z,19.1
2019-03-11T10:54:46.000Z,19.2
2019-03-11T11:04:47.000Z,19.2
2019-03-11T11:14:46.000Z,19.2
2019-03-11T11:24:46.000Z,19.2
2019-03-11T11:34:46.000Z,19.2
2019-03-11T11:44:46.000Z,19.2
2019-03-11T11:54:46.000Z,19.2
2019-03-11T12:04:46.000Z,19.2
2019-03-11T12:14:46.000Z,19.2
2019-03-11T12:24:46.000Z,19.3
2019-03-11T12:34:46.000Z,19.2
2019-03-11T12:44:46.000Z,19.3
2019-03-11T12:54:46.000Z,19.3
2019-03-11T13:04:46.000Z,19.4
2019-03-11T13:14:49.000Z,19.3
2019-03-11T13:24:46.000Z,19.4
2019-03-11T13:34:46.000Z,19.4
2019-03-11T13:44:46.000Z,19.4
2019-03-11T13:54:46.000Z,19.4
2019-03-11T14:04:47.000Z,19.4
2019-03-11T14:14:46.000Z,19.5
2019-03-11T14:24:46.000Z,19.4
2019-03-11T14:34:46.000Z,19.5
2019-03-11T14:44:46.000Z,19.5
2019-03-11T14:54:46.000Z,19.5
2019-03-11T15:04:47.000Z,19.6
2019-03-11T15:14:46.000Z,19.5
2019-03-11T15:24:47.000Z,19.6
2019-03-11T15:34:47.000Z,19.5
2019-03-11T15:44:47.000Z,19.6
2019-03-11T15:54:47.000Z,19.5
2019-03-11T16:04:47.000Z,19.6
2019-03-11T16:14:47.000Z,19.6
2019-03-11T16:24:48.000Z,19.7
2019-03-11T16:34:47.000Z,19.6
2019-03-11T16:44:47.000Z,19.7
2019-03-11T16:54:47.000Z,19.6
2019-03-11T17:04:47.000Z,19.7
2019-03-11T17:14:47.000Z,19.7
2019-03-11T17:24:47.000Z,19.7
2019-03-11T17:34:47.000Z,19.7
2019-03-11T17:44:47.000Z,19.8
2019-03-11T17:54:47.000Z,19.8
2019-03-11T18:04:47.000Z,19.8
2019-03-11T18:14:47.000Z,19.8
2019-03-11T18:24:47.000Z,19.7
2019-03-11T18:34:47.000Z,19.8
2019-03-11T18:44:47.000Z,19.7
2019-03-11T18:54:47.000Z,19.8
2019-03-11T19:04:49.000Z,19.7
2019-03-11T19:14:47.000Z,19.8
2019-03-11T19:24:47.000Z,19.7
2019-03-11T19:34:47.000Z,19.8
2019-03-11T19:44:48.000Z,19.8
2019-03-11T19:54:47.000Z,19.9
2019-03-11T20:04:47.000Z,19.9
2019-03-11T20:14:47.000Z,20
2019-03-11T20:24:47.000Z,19.9
2019-03-11T20:34:47.000Z,19.9
2019-03-11T20:44:49.000Z,19.9
2019-03-11T20:54:47.000Z,20
2019-03-11T21:04:47.000Z,20
2019-03-11T21:14:47.000Z,19.9
2019-03-11T21:24:47.000Z,20
2019-03-11T21:34:47.000Z,20
2019-03-11T21:44:47.000Z,19.5
2019-03-11T21:54:47.000Z,17.9
2019-03-11T22:04:47.000Z,17.2
2019-03-11T22:14:47.000Z,16.9
2019-03-11T22:24:48.000Z,16.7
2019-03-11T22:34:48.000Z,16.6
2019-03-11T22:44:49.000Z,16.5
2019-03-11T22:54:48.000Z,16.4
2019-03-11T23:04:48.000Z,16.2
2019-03-11T23:14:48.000Z,16.2
2019-03-11T23:24:48.000Z,16.2
2019-03-11T23:34:48.000Z,16
2019-03-11T23:44:48.000Z,16
2019-03-11T23:54:48.000Z,16
